Aylett, Virginia
Current Conditions -  °F | °C
As of 3:15 AM on Friday 24 Oct 2014 (Local Time) from KXSA Reporting Station
Clear Clear  
Wind Chill: 53°   Ceiling: Unl
Heat Index: 53°   Visibility: 10mi
Dew Point: 41°   Wind: 5mph
Humidity: 64%   Direction: 280°W
Pressure: 29.93"   Gusts: NA
Location:  37.79°N, 77.11°W
Report Text: KXSA 240715Z AUTO 28004KT 10SM CLR 12/05 A2993 RMK AO2 T01150048
Loading
Personal Weather Stations






























Interactive Weather Map New forecast layout! Learn more

10-Day Weather Forecast

Advertisements
Track Severe Weather on mobile